createdAt,value
2022-10-24T00:01:30.883Z,9.52
2022-10-24T00:03:59.003Z,9.47
2022-10-24T00:06:26.866Z,9.52
2022-10-24T00:08:54.792Z,9.56
2022-10-24T00:11:28.056Z,9.54
2022-10-24T00:13:57.843Z,9.55
2022-10-24T00:16:27.031Z,9.55
2022-10-24T00:18:54.931Z,9.57
2022-10-24T00:21:22.900Z,9.53
2022-10-24T00:23:50.549Z,9.47
2022-10-24T00:26:18.346Z,9.61
2022-10-24T00:28:46.254Z,9.54
2022-10-24T00:31:17.529Z,9.74
2022-10-24T00:33:46.302Z,9.74
2022-10-24T00:36:17.127Z,9.66
2022-10-24T00:38:44.815Z,9.77
2022-10-24T00:41:22.038Z,9.76
2022-10-24T00:43:50.122Z,9.80
2022-10-24T00:46:19.980Z,9.78
2022-10-24T00:48:52.073Z,9.80
2022-10-24T00:51:21.726Z,9.73
2022-10-24T00:54:03.628Z,9.87
2022-10-24T00:56:55.419Z,9.85
2022-10-24T00:59:23.786Z,9.91
2022-10-24T01:01:51.789Z,9.88
2022-10-24T01:04:19.817Z,10.10
2022-10-24T01:07:02.997Z,10.01
2022-10-24T01:09:58.106Z,9.81
2022-10-24T01:12:52.286Z,9.79
2022-10-24T01:15:38.973Z,9.89
2022-10-24T01:18:32.105Z,9.79
2022-10-24T01:21:31.449Z,9.71
2022-10-24T01:24:47.340Z,9.80
2022-10-24T01:27:37.608Z,9.74
2022-10-24T01:30:16.768Z,9.72
2022-10-24T01:33:20.660Z,9.64
2022-10-24T01:35:55.003Z,9.66
2022-10-24T01:38:38.799Z,9.69
2022-10-24T01:41:17.451Z,9.61
2022-10-24T01:44:02.488Z,9.55
2022-10-24T01:46:40.712Z,9.56
2022-10-24T01:49:18.417Z,9.62
2022-10-24T01:51:51.139Z,9.63
2022-10-24T01:54:19.966Z,9.50
2022-10-24T01:56:47.855Z,9.47
2022-10-24T01:59:29.875Z,9.50
2022-10-24T02:02:06.517Z,9.52
2022-10-24T02:04:38.186Z,9.46
2022-10-24T02:07:10.571Z,9.36
2022-10-24T02:09:42.034Z,9.33
2022-10-24T02:12:14.286Z,9.36
2022-10-24T02:14:48.794Z,9.35
2022-10-24T02:17:17.681Z,9.26
2022-10-24T02:19:46.677Z,9.30
2022-10-24T02:22:42.390Z,9.34
2022-10-24T02:25:32.210Z,9.33
2022-10-24T02:28:11.959Z,9.44
2022-10-24T02:30:52.269Z,9.36
2022-10-24T02:33:20.928Z,9.38
2022-10-24T02:35:50.173Z,9.41
2022-10-24T02:38:30.445Z,9.36
2022-10-24T02:41:02.138Z,9.36
2022-10-24T02:43:32.376Z,9.49
2022-10-24T02:46:00.460Z,9.39
2022-10-24T02:48:34.217Z,9.33
2022-10-24T02:51:03.713Z,9.40
2022-10-24T02:53:31.690Z,9.34
2022-10-24T02:55:59.253Z,9.34
2022-10-24T02:58:27.105Z,9.29
2022-10-24T03:00:54.703Z,9.26
2022-10-24T03:03:22.616Z,9.18
2022-10-24T03:05:50.283Z,9.25
2022-10-24T03:08:18.126Z,9.18
2022-10-24T03:10:45.787Z,9.22
2022-10-24T03:13:13.581Z,9.20
2022-10-24T03:15:41.305Z,9.29
2022-10-24T03:18:09.112Z,9.41
2022-10-24T03:20:37.090Z,9.49
2022-10-24T03:23:05.001Z,9.40
2022-10-24T03:25:33.129Z,9.40
2022-10-24T03:28:00.928Z,9.42
2022-10-24T03:30:28.465Z,9.49
2022-10-24T03:32:56.335Z,9.54
2022-10-24T03:35:24.010Z,9.71
2022-10-24T03:37:51.867Z,9.71
2022-10-24T03:40:19.489Z,9.75
2022-10-24T03:42:47.779Z,9.82
2022-10-24T03:45:15.815Z,9.80
2022-10-24T03:47:43.770Z,9.85
2022-10-24T03:50:11.517Z,10.07
2022-10-24T03:52:39.378Z,10.10
2022-10-24T03:55:07.488Z,10.05
2022-10-24T03:57:35.312Z,9.99
2022-10-24T04:00:03.540Z,10.03
2022-10-24T04:02:34.652Z,10.00
2022-10-24T04:05:02.305Z,10.11
2022-10-24T04:07:30.173Z,10.07
2022-10-24T04:09:57.908Z,10.08
2022-10-24T04:12:26.247Z,10.07
2022-10-24T04:14:53.974Z,10.03
2022-10-24T04:17:21.893Z,9.98
2022-10-24T04:19:49.488Z,9.97
2022-10-24T04:22:17.584Z,10.01
2022-10-24T04:24:45.321Z,10.08
2022-10-24T04:27:13.175Z,10.04
2022-10-24T04:29:40.704Z,9.95
2022-10-24T04:32:08.845Z,10.00
2022-10-24T04:34:36.787Z,9.93
2022-10-24T04:37:04.725Z,9.96
2022-10-24T04:39:32.384Z,9.94
2022-10-24T04:42:00.225Z,9.95
2022-10-24T04:44:27.852Z,9.95
2022-10-24T04:46:55.742Z,10.00
2022-10-24T04:49:23.351Z,9.94
2022-10-24T04:51:51.152Z,9.99
2022-10-24T04:54:18.760Z,9.96
2022-10-24T04:56:46.558Z,9.94
2022-10-24T04:59:14.361Z,10.02
2022-10-24T05:01:42.224Z,9.93
2022-10-24T05:04:09.956Z,9.86
2022-10-24T05:06:39.284Z,9.89
2022-10-24T05:09:09.138Z,9.96
2022-10-24T05:11:36.986Z,9.87
2022-10-24T05:14:04.723Z,9.98
2022-10-24T05:16:32.524Z,9.91
2022-10-24T05:19:00.073Z,9.96
2022-10-24T05:21:27.911Z,9.91
2022-10-24T05:23:55.581Z,9.92
2022-10-24T05:26:23.395Z,9.91
2022-10-24T05:28:52.633Z,9.95
2022-10-24T05:31:20.805Z,10.02
2022-10-24T05:33:48.486Z,10.18
2022-10-24T05:36:16.247Z,10.11
2022-10-24T05:38:43.837Z,10.10
2022-10-24T05:41:11.660Z,10.13
2022-10-24T05:43:39.334Z,10.12
2022-10-24T05:46:07.438Z,10.21
2022-10-24T05:48:35.520Z,10.15
2022-10-24T05:51:03.642Z,10.24
2022-10-24T05:53:31.224Z,10.28
2022-10-24T05:55:58.973Z,10.24
2022-10-24T05:58:27.520Z,10.31
2022-10-24T06:00:55.386Z,10.32
2022-10-24T06:03:23.871Z,10.38
2022-10-24T06:05:51.852Z,10.41
2022-10-24T06:08:19.762Z,10.53
2022-10-24T06:10:52.002Z,10.48
2022-10-24T06:13:19.953Z,10.65
2022-10-24T06:15:47.881Z,10.63
2022-10-24T06:18:15.797Z,10.65
2022-10-24T06:20:43.563Z,10.68
2022-10-24T06:23:11.171Z,10.72
2022-10-24T06:25:42.357Z,10.75
2022-10-24T06:28:12.191Z,10.69
2022-10-24T06:30:41.167Z,10.79
2022-10-24T06:33:08.879Z,10.84
2022-10-24T06:35:37.201Z,10.93
2022-10-24T06:38:04.906Z,11.05
2022-10-24T06:40:33.156Z,11.07
2022-10-24T06:43:00.809Z,11.17
2022-10-24T06:45:28.799Z,11.15
2022-10-24T06:47:57.003Z,11.26
2022-10-24T06:50:25.357Z,11.25
2022-10-24T06:52:53.003Z,11.28
2022-10-24T06:55:20.956Z,11.40
2022-10-24T06:57:48.654Z,11.41
2022-10-24T07:00:16.828Z,11.35
2022-10-24T07:02:44.700Z,11.52
2022-10-24T07:05:14.462Z,11.40
2022-10-24T07:07:43.376Z,11.42
2022-10-24T07:10:14.242Z,11.41
2022-10-24T07:12:43.504Z,11.51
2022-10-24T07:15:12.314Z,11.45
2022-10-24T07:17:44.247Z,11.42
2022-10-24T07:20:13.497Z,11.51
2022-10-24T07:22:41.739Z,11.54
2022-10-24T07:25:09.861Z,11.55
2022-10-24T07:27:37.843Z,11.54
2022-10-24T07:30:08.260Z,11.74
2022-10-24T07:32:36.447Z,11.78
2022-10-24T07:35:04.513Z,11.88
2022-10-24T07:37:32.068Z,11.90
2022-10-24T07:40:00.050Z,11.97
2022-10-24T07:42:28.047Z,11.98
2022-10-24T07:44:56.099Z,11.95
2022-10-24T07:47:23.669Z,11.95
2022-10-24T07:49:51.566Z,12.05
2022-10-24T07:52:19.163Z,11.94
2022-10-24T07:54:46.947Z,11.97
2022-10-24T07:57:14.561Z,12.02
2022-10-24T07:59:42.964Z,12.08
2022-10-24T08:02:14.985Z,12.09
2022-10-24T08:04:43.743Z,12.29
2022-10-24T08:07:15.382Z,12.27
2022-10-24T08:09:45.941Z,12.29
2022-10-24T08:12:14.977Z,12.40
2022-10-24T08:14:43.377Z,12.50
2022-10-24T08:17:11.169Z,12.77
2022-10-24T08:19:44.058Z,12.72
2022-10-24T08:22:12.771Z,12.71
2022-10-24T08:24:42.485Z,12.79
2022-10-24T08:27:10.193Z,12.92
2022-10-24T08:29:38.397Z,13.23
2022-10-24T08:32:09.108Z,13.31
2022-10-24T08:34:38.821Z,13.24
2022-10-24T08:37:06.570Z,13.44
2022-10-24T08:39:34.627Z,13.54
2022-10-24T08:42:06.817Z,13.65
2022-10-24T08:44:41.107Z,13.71
2022-10-24T08:47:15.972Z,13.89
2022-10-24T08:49:52.800Z,14.04
2022-10-24T08:52:28.944Z,14.02
2022-10-24T08:55:04.824Z,14.11
2022-10-24T08:57:35.090Z,14.10
2022-10-24T09:00:26.299Z,14.08
2022-10-24T09:03:05.343Z,14.19
2022-10-24T09:05:43.362Z,14.11
2022-10-24T09:08:32.725Z,14.01
2022-10-24T09:11:06.722Z,14.17
2022-10-24T09:13:37.929Z,14.04
2022-10-24T09:16:06.004Z,14.29
2022-10-24T09:18:43.371Z,14.45
2022-10-24T09:21:15.209Z,14.56
2022-10-24T09:23:43.917Z,14.71
2022-10-24T09:26:26.593Z,14.97
2022-10-24T09:28:56.944Z,15.10
2022-10-24T09:31:27.088Z,15.06
2022-10-24T09:33:56.662Z,15.08
2022-10-24T09:36:27.063Z,15.80
2022-10-24T09:38:54.766Z,16.68
2022-10-24T09:41:33.368Z,17.44
2022-10-24T09:44:02.185Z,17.93
2022-10-24T09:46:38.515Z,17.33
2022-10-24T09:49:17.764Z,17.09
2022-10-24T09:52:00.020Z,16.79
2022-10-24T09:54:30.423Z,16.39
2022-10-24T09:57:10.300Z,16.46
2022-10-24T09:59:49.607Z,16.24
2022-10-24T10:02:24.074Z,16.08
2022-10-24T10:05:04.214Z,15.99
2022-10-24T10:07:35.216Z,16.21
2022-10-24T10:10:18.298Z,16.08
2022-10-24T10:12:55.391Z,15.99
2022-10-24T10:15:39.974Z,16.02
2022-10-24T10:18:26.375Z,16.10
2022-10-24T10:21:20.940Z,16.09
2022-10-24T10:23:51.428Z,16.07
2022-10-24T10:26:19.408Z,16.09
2022-10-24T10:28:53.458Z,16.04
2022-10-24T10:31:27.046Z,16.03
2022-10-24T10:34:23.118Z,15.81
2022-10-24T10:36:53.792Z,15.80
2022-10-24T10:39:47.127Z,16.06
2022-10-24T10:42:31.671Z,16.14
2022-10-24T10:44:59.509Z,15.99
2022-10-24T10:47:47.232Z,16.19
2022-10-24T10:50:49.417Z,16.52
2022-10-24T10:53:55.870Z,16.66
2022-10-24T10:56:40.006Z,16.58
2022-10-24T10:59:29.188Z,16.59
2022-10-24T11:02:16.487Z,16.64
2022-10-24T11:04:54.600Z,16.69
2022-10-24T11:07:42.798Z,16.55
2022-10-24T11:10:20.771Z,16.54
2022-10-24T11:12:49.032Z,16.29
2022-10-24T11:15:25.342Z,16.26
2022-10-24T11:17:59.140Z,16.33
2022-10-24T11:20:35.372Z,16.34
2022-10-24T11:23:22.998Z,16.41
2022-10-24T11:26:00.102Z,16.57
2022-10-24T11:28:56.210Z,16.54
2022-10-24T11:31:32.672Z,16.59
2022-10-24T11:34:24.240Z,16.67
2022-10-24T11:37:17.772Z,16.86
2022-10-24T11:39:54.639Z,16.62
2022-10-24T11:42:30.401Z,16.73
2022-10-24T11:45:06.481Z,16.76
2022-10-24T11:47:58.617Z,16.71
2022-10-24T11:50:41.422Z,16.65
2022-10-24T11:53:33.273Z,16.60
2022-10-24T11:56:30.820Z,16.80
2022-10-24T11:59:02.515Z,16.95
2022-10-24T12:01:59.281Z,16.97
2022-10-24T12:04:48.217Z,17.12
2022-10-24T12:07:53.244Z,17.30
2022-10-24T12:10:29.499Z,17.53
2022-10-24T12:13:17.991Z,17.75
2022-10-24T12:15:58.170Z,17.99
2022-10-24T12:18:37.547Z,18.21
2022-10-24T12:21:25.850Z,18.29
2022-10-24T12:23:57.573Z,18.28
2022-10-24T12:26:27.035Z,18.38
2022-10-24T12:29:01.023Z,18.58
2022-10-24T12:31:33.005Z,18.94
2022-10-24T12:34:16.162Z,19.05
2022-10-24T12:37:12.192Z,19.16
2022-10-24T12:39:56.073Z,19.05
2022-10-24T12:42:26.325Z,18.83
2022-10-24T12:45:24.139Z,18.72
2022-10-24T12:50:28.883Z,18.80
2022-10-24T12:53:17.573Z,18.85
2022-10-24T12:55:48.523Z,18.72
2022-10-24T12:58:36.305Z,18.45
2022-10-24T13:01:34.450Z,18.21
2022-10-24T13:04:30.170Z,18.29
2022-10-24T13:07:13.043Z,18.19
2022-10-24T13:09:49.357Z,18.42
2022-10-24T13:12:44.988Z,18.37
2022-10-24T13:15:53.421Z,18.32
2022-10-24T13:18:45.623Z,18.19
2022-10-24T13:21:46.672Z,17.90
2022-10-24T13:24:19.894Z,17.85
2022-10-24T13:26:49.102Z,17.60
2022-10-24T13:29:29.261Z,17.76
2022-10-24T13:32:19.932Z,17.77
2022-10-24T13:34:54.367Z,17.56
2022-10-24T13:37:22.343Z,17.52
2022-10-24T13:40:07.461Z,17.42
2022-10-24T13:42:40.598Z,17.32
2022-10-24T13:45:33.801Z,17.29
2022-10-24T13:48:18.911Z,17.19
2022-10-24T13:51:07.018Z,17.23
2022-10-24T13:54:19.075Z,17.15
2022-10-24T13:56:48.262Z,17.05
2022-10-24T13:59:37.301Z,17.07
2022-10-24T14:02:18.189Z,16.95
2022-10-24T14:04:51.211Z,16.85
2022-10-24T14:07:29.180Z,16.90
2022-10-24T14:10:08.779Z,16.86
2022-10-24T14:12:41.240Z,16.73
2022-10-24T14:15:19.965Z,16.71
2022-10-24T14:18:03.262Z,16.80
2022-10-24T14:20:37.589Z,16.60
2022-10-24T14:23:37.395Z,16.52
2022-10-24T14:26:12.201Z,16.50
2022-10-24T14:28:46.047Z,16.45
2022-10-24T14:31:30.950Z,16.25
2022-10-24T14:33:59.220Z,16.18
2022-10-24T14:36:33.541Z,16.04
2022-10-24T14:39:02.114Z,15.96
2022-10-24T14:41:32.142Z,15.84
2022-10-24T14:44:00.865Z,15.81
2022-10-24T14:46:43.529Z,15.71
2022-10-24T14:49:29.693Z,15.53
2022-10-24T14:52:08.533Z,15.37
2022-10-24T14:54:37.166Z,15.23
2022-10-24T14:57:15.750Z,15.16
2022-10-24T14:59:46.688Z,15.07
2022-10-24T15:02:37.547Z,14.93
2022-10-24T15:05:40.275Z,14.82
2022-10-24T15:08:22.028Z,14.76
2022-10-24T15:11:02.395Z,14.69
2022-10-24T15:13:33.044Z,14.58
2022-10-24T15:16:01.654Z,14.50
2022-10-24T15:18:43.562Z,14.40
2022-10-24T15:21:21.698Z,14.33
2022-10-24T15:23:59.198Z,14.23
2022-10-24T15:26:33.006Z,14.12
2022-10-24T15:29:03.783Z,14.08
2022-10-24T15:31:34.521Z,13.96
2022-10-24T15:34:02.250Z,13.85
2022-10-24T15:36:34.528Z,13.77
2022-10-24T15:39:12.313Z,13.68
2022-10-24T15:41:40.716Z,13.64
2022-10-24T15:44:29.689Z,13.71
2022-10-24T15:46:57.629Z,13.59
2022-10-24T15:49:25.433Z,13.52
2022-10-24T15:51:53.296Z,13.43
2022-10-24T15:54:22.524Z,13.36
2022-10-24T15:56:50.849Z,13.34
2022-10-24T15:59:20.059Z,13.26
2022-10-24T16:01:57.995Z,13.23
2022-10-24T16:04:26.022Z,13.11
2022-10-24T16:06:53.984Z,13.11
2022-10-24T16:09:27.458Z,12.95
2022-10-24T16:11:55.762Z,12.95
2022-10-24T16:14:27.195Z,13.03
2022-10-24T16:16:55.282Z,13.00
2022-10-24T16:19:24.170Z,13.05
2022-10-24T16:21:58.531Z,13.09
2022-10-24T16:24:27.898Z,13.02
2022-10-24T16:26:55.971Z,12.95
2022-10-24T16:29:23.633Z,12.93
2022-10-24T16:31:51.733Z,12.80
2022-10-24T16:34:19.474Z,12.80
2022-10-24T16:36:47.319Z,12.77
2022-10-24T16:39:16.335Z,12.76
2022-10-24T16:41:46.289Z,12.69
2022-10-24T16:44:14.808Z,12.53
2022-10-24T16:46:42.831Z,12.53
2022-10-24T16:49:10.553Z,12.44
2022-10-24T16:51:41.780Z,12.35
2022-10-24T16:54:11.791Z,12.24
2022-10-24T16:56:39.573Z,12.17
2022-10-24T16:59:10.311Z,12.26
2022-10-24T17:01:41.308Z,12.30
2022-10-24T17:04:09.250Z,12.23
2022-10-24T17:06:37.307Z,12.16
2022-10-24T17:09:04.891Z,12.17
2022-10-24T17:11:44.883Z,12.13
2022-10-24T17:14:14.369Z,12.14
2022-10-24T17:16:43.379Z,12.15
2022-10-24T17:19:16.086Z,12.18
2022-10-24T17:21:49.896Z,12.08
2022-10-24T17:24:20.781Z,12.10
2022-10-24T17:26:49.535Z,12.12
2022-10-24T17:29:25.565Z,12.05
2022-10-24T17:31:54.018Z,12.00
2022-10-24T17:34:22.966Z,11.97
2022-10-24T17:37:05.346Z,12.07
2022-10-24T17:40:02.956Z,12.21
2022-10-24T17:42:31.026Z,12.19
2022-10-24T17:44:58.872Z,12.09
2022-10-24T17:47:26.946Z,12.05
2022-10-24T17:49:54.631Z,12.10
2022-10-24T17:52:24.085Z,12.07
2022-10-24T17:54:52.393Z,11.98
2022-10-24T17:57:20.239Z,11.90
2022-10-24T17:59:47.827Z,11.93
2022-10-24T18:02:15.705Z,11.87
2022-10-24T18:04:44.962Z,11.90
2022-10-24T18:07:12.902Z,11.81
2022-10-24T18:09:40.728Z,11.92
2022-10-24T18:12:08.596Z,11.88
2022-10-24T18:14:37.711Z,11.93
2022-10-24T18:17:05.601Z,11.89
2022-10-24T18:19:33.275Z,11.85
2022-10-24T18:22:01.194Z,11.90
2022-10-24T18:24:29.528Z,11.95
2022-10-24T18:26:57.549Z,11.94
2022-10-24T18:29:25.377Z,12.01
2022-10-24T18:31:53.326Z,11.98
2022-10-24T18:34:20.999Z,11.97
2022-10-24T18:36:48.842Z,11.91
2022-10-24T18:39:17.232Z,11.95
2022-10-24T18:41:48.964Z,12.07
2022-10-24T18:44:29.024Z,12.01
2022-10-24T18:47:03.684Z,11.98
2022-10-24T18:49:33.745Z,12.05
2022-10-24T18:52:10.980Z,12.09
2022-10-24T18:55:08.293Z,12.18
2022-10-24T18:57:36.781Z,12.25
2022-10-24T19:00:07.019Z,12.28
2022-10-24T19:03:05.794Z,12.25
2022-10-24T19:05:59.156Z,12.15
2022-10-24T19:08:27.844Z,12.22
2022-10-24T19:10:56.905Z,12.22
2022-10-24T19:13:26.599Z,12.18
2022-10-24T19:15:57.707Z,12.19
2022-10-24T19:18:27.307Z,12.17
2022-10-24T19:20:55.322Z,12.15
2022-10-24T19:23:24.712Z,12.15
2022-10-24T19:25:52.799Z,12.22
2022-10-24T19:28:21.477Z,12.12
2022-10-24T19:30:49.103Z,12.06
2022-10-24T19:33:17.222Z,12.05
2022-10-24T19:35:47.321Z,12.07
2022-10-24T19:38:16.509Z,12.16
2022-10-24T19:40:54.505Z,12.13
2022-10-24T19:43:24.795Z,11.96
2022-10-24T19:46:07.828Z,11.98
2022-10-24T19:48:43.989Z,11.83
2022-10-24T19:51:13.097Z,11.81
2022-10-24T19:53:43.118Z,11.79
2022-10-24T19:56:12.293Z,11.75
2022-10-24T19:58:41.890Z,11.86
2022-10-24T20:01:15.996Z,11.82
2022-10-24T20:03:46.078Z,11.96
2022-10-24T20:06:15.255Z,12.05
2022-10-24T20:08:49.533Z,11.96
2022-10-24T20:11:17.538Z,11.93
2022-10-24T20:13:45.385Z,11.89
2022-10-24T20:16:13.457Z,12.07
2022-10-24T20:18:43.519Z,12.18
2022-10-24T20:21:17.653Z,12.11
2022-10-24T20:23:46.818Z,12.18
2022-10-24T20:26:23.661Z,12.18
2022-10-24T20:28:54.667Z,12.18
2022-10-24T20:31:34.615Z,12.20
2022-10-24T20:34:08.339Z,12.20
2022-10-24T20:36:39.129Z,12.18
2022-10-24T20:39:08.534Z,12.24
2022-10-24T20:41:37.101Z,12.20
2022-10-24T20:44:07.022Z,12.18
2022-10-24T20:46:36.288Z,12.24
2022-10-24T20:49:04.419Z,12.14
2022-10-24T20:51:32.672Z,12.11
2022-10-24T20:54:00.522Z,12.04
2022-10-24T20:56:28.556Z,12.11
2022-10-24T20:58:56.668Z,12.10
2022-10-24T21:01:27.456Z,12.09
2022-10-24T21:03:57.245Z,12.17
2022-10-24T21:06:34.485Z,12.22
2022-10-24T21:09:04.888Z,12.14
2022-10-24T21:11:33.990Z,12.08
2022-10-24T21:14:05.537Z,12.07
2022-10-24T21:16:34.437Z,12.10
2022-10-24T21:19:03.254Z,12.11
2022-10-24T21:21:31.107Z,12.22
2022-10-24T21:24:04.351Z,12.12
2022-10-24T21:26:38.334Z,12.11
2022-10-24T21:29:14.885Z,12.11
2022-10-24T21:31:50.578Z,12.13
2022-10-24T21:34:19.644Z,12.11
2022-10-24T21:36:47.790Z,12.11
2022-10-24T21:39:17.276Z,12.15
2022-10-24T21:41:45.287Z,12.22
2022-10-24T21:44:14.399Z,12.34
2022-10-24T21:46:42.340Z,12.29
2022-10-24T21:49:10.471Z,12.32
2022-10-24T21:51:39.349Z,12.37
2022-10-24T21:54:19.983Z,12.41
2022-10-24T21:56:47.961Z,12.48
2022-10-24T21:59:18.313Z,12.49
2022-10-24T22:01:47.503Z,12.56
2022-10-24T22:04:16.625Z,12.54
2022-10-24T22:06:45.231Z,12.66
2022-10-24T22:09:17.497Z,12.78
2022-10-24T22:11:45.677Z,12.77
2022-10-24T22:14:15.817Z,12.82
2022-10-24T22:16:44.397Z,12.88
2022-10-24T22:19:13.867Z,12.84
2022-10-24T22:21:45.359Z,12.86
2022-10-24T22:24:19.546Z,12.97
2022-10-24T22:26:48.288Z,12.92
2022-10-24T22:29:21.647Z,12.98
2022-10-24T22:31:50.950Z,13.05
2022-10-24T22:34:22.458Z,13.03
2022-10-24T22:37:15.900Z,13.11
2022-10-24T22:39:44.213Z,13.05
2022-10-24T22:42:14.752Z,12.92
2022-10-24T22:44:45.851Z,13.02
2022-10-24T22:47:22.248Z,12.98
2022-10-24T22:50:28.146Z,12.97
2022-10-24T22:52:55.949Z,13.05
2022-10-24T22:55:42.109Z,13.00
2022-10-24T22:58:09.998Z,12.94
2022-10-24T23:00:38.125Z,12.96
2022-10-24T23:03:27.483Z,12.99
2022-10-24T23:06:10.256Z,13.04
2022-10-24T23:08:40.868Z,13.23
2022-10-24T23:11:11.882Z,13.45
2022-10-24T23:13:41.807Z,13.53
2022-10-24T23:16:25.287Z,13.43
2022-10-24T23:18:53.174Z,13.31
2022-10-24T23:21:24.838Z,13.16
2022-10-24T23:23:52.740Z,13.16
2022-10-24T23:27:04.460Z,13.05
2022-10-24T23:29:34.104Z,13.04
2022-10-24T23:32:03.744Z,13.03
2022-10-24T23:34:31.986Z,13.09
2022-10-24T23:37:04.984Z,13.20
2022-10-24T23:39:35.359Z,13.20
2022-10-24T23:42:04.898Z,13.16
2022-10-24T23:44:32.789Z,13.18
2022-10-24T23:47:12.511Z,13.18
2022-10-24T23:49:44.232Z,13.28
2022-10-24T23:52:42.787Z,13.34
2022-10-24T23:55:12.683Z,13.29
2022-10-24T23:57:40.657Z,13.28
